Time;durP1;ratioP1;P1;durP2;ratioP2;P2;SDS_P1;SDS_P2;PMS_P1;PMS_P2;Temp;Humidity;BMP_temperature;BMP_pressure;BME280_temperature;BME280_humidity;BME280_pressure;Samples;Min_cycle;Max_cycle;Signal;HPM_P1;HPM_P2
2022/12/06 00:01:06;;;;;;;8.23;3.70;;;5.10;99.90;;;;;;5074436;28;20040;-62
2022/12/06 00:03:33;;;;;;;7.65;3.40;;;5.10;99.90;;;;;;5072900;28;20052;-63
2022/12/06 00:06:02;;;;;;;10.23;3.67;;;5.10;99.90;;;;;;5074564;28;20419;-62
2022/12/06 00:08:29;;;;;;;7.35;3.17;;;5.10;99.90;;;;;;5074280;28;20045;-62
2022/12/06 00:11:03;;;;;;;7.20;3.58;;;5.10;99.90;;;;;;5073727;28;20044;-62
2022/12/06 00:13:30;;;;;;;8.30;3.90;;;5.00;99.90;;;;;;5073349;28;20108;-62
2022/12/06 00:16:00;;;;;;;7.43;3.35;;;5.00;99.90;;;;;;5073232;28;20048;-62
2022/12/06 00:18:27;;;;;;;6.65;3.80;;;5.00;99.90;;;;;;5073795;28;20052;-62
2022/12/06 00:20:54;;;;;;;9.90;3.58;;;5.00;99.90;;;;;;5074300;28;20408;-62
2022/12/06 00:23:21;;;;;;;5.68;3.28;;;5.00;99.90;;;;;;5074285;28;20456;-62
2022/12/06 00:25:48;;;;;;;7.68;3.35;;;5.00;99.90;;;;;;5072270;28;20052;-62
2022/12/06 00:28:17;;;;;;;7.18;3.30;;;5.00;99.90;;;;;;5072793;28;20485;-62
2022/12/06 00:30:44;;;;;;;6.82;2.83;;;5.00;99.90;;;;;;5072198;28;20044;-61
2022/12/06 00:33:10;;;;;;;7.90;3.35;;;5.00;99.90;;;;;;5073239;28;20075;-62
2022/12/06 00:35:37;;;;;;;7.03;2.80;;;5.00;99.90;;;;;;5073168;28;20504;-62
2022/12/06 00:38:04;;;;;;;5.22;2.45;;;5.00;99.90;;;;;;5072646;28;20049;-62
2022/12/06 00:40:31;;;;;;;7.53;2.80;;;5.00;99.90;;;;;;5072038;28;20040;-62
2022/12/06 00:42:58;;;;;;;7.63;2.97;;;5.00;99.90;;;;;;5072548;28;20044;-63
2022/12/06 00:45:27;;;;;;;6.95;3.20;;;5.00;99.90;;;;;;5073726;28;20056;-62
2022/12/06 00:47:54;;;;;;;7.13;2.45;;;5.00;99.90;;;;;;5073140;28;20134;-63
2022/12/06 00:50:20;;;;;;;12.40;2.80;;;5.00;99.90;;;;;;5072639;28;20511;-62
2022/12/06 00:52:47;;;;;;;6.68;2.42;;;5.10;99.90;;;;;;5073001;28;20052;-62
2022/12/06 00:55:14;;;;;;;4.13;2.20;;;5.00;99.90;;;;;;5073538;28;20048;-61
2022/12/06 00:57:41;;;;;;;7.72;2.15;;;5.00;99.90;;;;;;5072208;28;20052;-62
2022/12/06 01:00:10;;;;;;;4.50;2.25;;;5.10;99.90;;;;;;5071531;28;20055;-62
2022/12/06 01:02:38;;;;;;;6.35;1.90;;;5.00;99.90;;;;;;5073619;28;20500;-63
2022/12/06 01:05:05;;;;;;;6.78;2.13;;;5.00;99.90;;;;;;5071613;28;20044;-62
2022/12/06 01:07:32;;;;;;;5.18;2.25;;;5.00;99.90;;;;;;5071579;28;20051;-62
2022/12/06 01:09:59;;;;;;;5.47;1.70;;;5.00;99.90;;;;;;5072479;28;20040;-62
2022/12/06 01:12:26;;;;;;;4.88;1.90;;;5.00;99.90;;;;;;5073468;28;20048;-62
2022/12/06 01:14:53;;;;;;;4.55;1.70;;;5.00;99.90;;;;;;5071434;28;20057;-63
2022/12/06 01:17:20;;;;;;;4.25;1.50;;;4.90;99.90;;;;;;5072127;28;20048;-62
2022/12/06 01:19:49;;;;;;;4.15;1.77;;;4.90;99.90;;;;;;5071978;28;20064;-62
2022/12/06 01:22:16;;;;;;;3.78;1.90;;;4.90;99.90;;;;;;5072292;28;20040;-62
2022/12/06 01:24:43;;;;;;;4.82;1.45;;;4.90;99.90;;;;;;5073089;28;20045;-62
2022/12/06 01:27:10;;;;;;;5.00;1.30;;;4.90;99.90;;;;;;5072877;28;20480;-62
2022/12/06 01:29:37;;;;;;;6.05;1.73;;;4.90;99.90;;;;;;5070016;28;20044;-61
2022/12/06 01:32:04;;;;;;;3.97;1.60;;;4.90;99.90;;;;;;5071546;28;20044;-62
2022/12/06 01:34:31;;;;;;;6.88;1.50;;;4.90;99.90;;;;;;5072769;28;20072;-62
2022/12/06 01:36:59;;;;;;;2.35;1.20;;;4.90;99.90;;;;;;5072270;28;20045;-61
2022/12/06 01:39:26;;;;;;;2.28;1.20;;;4.90;99.90;;;;;;5072541;28;20048;-62
2022/12/06 01:41:53;;;;;;;2.20;1.13;;;4.90;99.90;;;;;;5071340;28;20044;-62
2022/12/06 01:44:43;;;;;;;5.65;1.25;;;4.80;99.90;;;;;;5070539;28;20052;-62
2022/12/06 01:47:17;;;;;;;5.15;1.40;;;4.80;99.90;;;;;;5068368;28;20419;-62
2022/12/06 01:49:47;;;;;;;5.57;1.20;;;4.80;99.90;;;;;;5071837;28;20044;-62
2022/12/06 01:52:17;;;;;;;3.50;1.55;;;4.80;99.90;;;;;;5072807;28;20044;-62
2022/12/06 01:54:45;;;;;;;2.78;1.10;;;4.80;99.90;;;;;;5071166;28;20404;-63
2022/12/06 01:57:15;;;;;;;2.90;1.45;;;4.70;99.90;;;;;;5071669;28;20169;-62
2022/12/06 01:59:42;;;;;;;4.22;1.50;;;4.80;99.90;;;;;;5072158;28;20048;-62
2022/12/06 02:02:10;;;;;;;2.22;1.30;;;4.80;99.90;;;;;;5072424;28;20045;-62
2022/12/06 02:04:37;;;;;;;3.70;1.35;;;4.80;99.90;;;;;;5071840;28;20060;-62
2022/12/06 02:07:06;;;;;;;3.53;1.27;;;4.80;99.90;;;;;;5072368;28;20062;-62
2022/12/06 02:09:36;;;;;;;2.70;1.50;;;4.90;99.90;;;;;;5069681;28;20045;-62
2022/12/06 02:12:03;;;;;;;5.20;1.33;;;4.80;99.90;;;;;;5071474;28;20496;-61
2022/12/06 02:14:34;;;;;;;3.58;2.00;;;4.70;99.90;;;;;;5072335;28;20109;-62
2022/12/06 02:17:12;;;;;;;2.35;1.30;;;4.70;99.90;;;;;;5072387;28;20044;-62
2022/12/06 02:19:59;;;;;;;3.05;1.20;;;4.70;99.90;;;;;;5070720;28;20048;-62
2022/12/06 02:22:42;;;;;;;3.90;1.70;;;4.70;99.90;;;;;;5069076;28;20048;-62
2022/12/06 02:25:36;;;;;;;4.25;1.80;;;4.70;99.90;;;;;;5071595;28;20055;-63
2022/12/06 02:28:27;;;;;;;5.80;2.30;;;4.70;99.90;;;;;;5071796;28;20083;-62
2022/12/06 02:31:03;;;;;;;4.93;2.25;;;4.70;99.90;;;;;;5042814;28;20507;-63
2022/12/06 02:33:36;;;;;;;5.70;2.60;;;4.70;99.90;;;;;;5071470;28;20044;-63
2022/12/06 02:36:07;;;;;;;2.50;1.55;;;4.70;99.90;;;;;;5070938;28;20055;-62
2022/12/06 02:38:39;;;;;;;5.95;1.70;;;4.70;99.90;;;;;;5071377;28;20052;-62
2022/12/06 02:41:10;;;;;;;2.25;1.40;;;4.70;99.90;;;;;;5072034;28;20439;-62
2022/12/06 02:43:41;;;;;;;6.28;1.88;;;4.70;99.90;;;;;;5070493;28;20059;-62
2022/12/06 02:46:12;;;;;;;3.58;1.65;;;4.70;99.90;;;;;;5071642;28;20044;-62
2022/12/06 02:48:40;;;;;;;;;;;4.70;99.90;;;;;;5072457;28;20053;-61
2022/12/06 02:51:11;;;;;;;3.97;1.77;;;4.70;99.90;;;;;;5070617;28;19928;-62
2022/12/06 02:53:42;;;;;;;4.28;1.80;;;4.70;99.90;;;;;;5071178;28;20052;-62
2022/12/06 02:56:09;;;;;;;6.05;1.98;;;4.70;99.90;;;;;;5070391;28;20476;-62
2022/12/06 02:58:37;;;;;;;5.25;1.90;;;4.70;99.90;;;;;;5070593;28;20488;-62
2022/12/06 03:01:06;;;;;;;5.05;1.83;;;4.70;99.90;;;;;;5069834;28;20049;-62
2022/12/06 03:03:54;;;;;;;5.18;1.85;;;4.70;99.90;;;;;;5071757;28;20404;-62
2022/12/06 03:06:51;;;;;;;3.25;1.67;;;4.70;99.90;;;;;;5071423;28;20048;-61
2022/12/06 03:09:36;;;;;;;3.20;2.03;;;4.70;99.90;;;;;;5069103;28;20063;-62
2022/12/06 03:12:10;;;;;;;5.18;2.20;;;4.70;99.90;;;;;;5071890;28;20053;-62
2022/12/06 03:14:45;;;;;;;3.50;1.90;;;4.70;99.90;;;;;;5069712;28;20048;-63
2022/12/06 03:17:18;;;;;;;4.47;1.88;;;4.70;99.90;;;;;;5072005;28;20443;-63
2022/12/06 03:19:53;;;;;;;6.35;1.77;;;4.70;99.90;;;;;;5070313;28;20053;-61
2022/12/06 03:22:25;;;;;;;3.22;1.88;;;4.70;99.90;;;;;;5073066;28;20048;-62
2022/12/06 03:24:53;;;;;;;5.93;1.90;;;4.70;99.90;;;;;;5074191;28;20044;-62
2022/12/06 03:27:22;;;;;;;3.63;1.98;;;4.70;99.90;;;;;;5075320;28;20052;-62
2022/12/06 03:29:54;;;;;;;4.78;2.03;;;4.70;99.90;;;;;;5074238;28;20067;-61
2022/12/06 03:32:25;;;;;;;2.45;1.52;;;4.60;99.90;;;;;;5074102;28;20048;-62
2022/12/06 03:34:56;;;;;;;4.22;1.80;;;4.60;99.90;;;;;;5073263;28;20052;-62
2022/12/06 03:37:27;;;;;;;6.78;1.80;;;4.50;99.90;;;;;;5072186;28;20074;-62
2022/12/06 03:40:02;;;;;;;6.18;1.65;;;4.50;99.90;;;;;;5073903;28;20404;-63
2022/12/06 03:42:29;;;;;;;3.28;1.60;;;4.50;99.90;;;;;;5074344;28;20055;-63
2022/12/06 03:44:56;;;;;;;3.03;1.42;;;4.40;99.90;;;;;;5072970;28;20052;-62
2022/12/06 03:47:34;;;;;;;3.70;1.63;;;5.80;99.90;;;;;;5075147;28;20044;-62
2022/12/06 03:50:08;;;;;;;4.63;1.52;;;4.30;99.90;;;;;;5072838;28;20051;-62
2022/12/06 03:52:36;;;;;;;3.45;1.38;;;4.30;99.90;;;;;;5072699;28;20464;-62
2022/12/06 03:55:03;;;;;;;2.88;1.50;;;4.30;99.90;;;;;;5074626;28;20040;-63
2022/12/06 03:57:30;;;;;;;2.33;1.13;;;4.20;99.90;;;;;;5073126;28;20064;-62
2022/12/06 03:59:57;;;;;;;2.88;1.20;;;4.20;99.90;;;;;;5074472;28;20045;-62
2022/12/06 04:02:23;;;;;;;2.38;1.40;;;4.20;99.90;;;;;;5074421;28;20056;-62
2022/12/06 04:04:50;;;;;;;3.17;1.58;;;4.20;99.90;;;;;;5073916;28;20051;-62
2022/12/06 04:07:20;;;;;;;2.60;1.35;;;4.20;99.90;;;;;;5074656;28;20086;-61
2022/12/06 04:09:55;;;;;;;3.50;1.52;;;4.20;99.90;;;;;;5073682;28;20106;-61
2022/12/06 04:15:08;;;;;;;4.10;1.38;;;4.20;99.90;;;;;;5074380;28;20049;-61
2022/12/06 04:20:22;;;;;;;2.95;1.63;;;4.20;99.90;;;;;;5074219;28;20067;-62
2022/12/06 04:23:04;;;;;;;4.15;1.65;;;4.10;99.90;;;;;;5073201;28;20467;-63
2022/12/06 04:25:32;;;;;;;2.67;1.52;;;4.10;99.90;;;;;;5072526;28;20052;-62
2022/12/06 04:38:59;;;;;;;2.33;1.20;;;3.70;99.90;;;;;;5060570;28;20060;-62
2022/12/06 04:44:10;;;;;;;2.75;1.40;;;3.70;99.90;;;;;;5066691;28;20063;-62
2022/12/06 04:46:37;;;;;;;3.50;1.60;;;3.50;99.90;;;;;;5068599;28;20403;-61
2022/12/06 04:49:04;;;;;;;3.85;1.60;;;3.40;99.90;;;;;;5067561;28;20044;-61
2022/12/06 04:51:31;;;;;;;2.72;1.98;;;3.30;99.90;;;;;;5068571;28;20510;-61
2022/12/06 04:54:00;;;;;;;2.65;1.48;;;3.20;99.90;;;;;;5070470;28;20048;-61
2022/12/06 04:56:27;;;;;;;3.47;1.70;;;3.10;99.90;;;;;;5066116;28;20538;-61
2022/12/06 04:58:54;;;;;;;3.50;2.13;;;3.00;99.90;;;;;;5067307;28;20068;-61
2022/12/06 05:01:21;;;;;;;4.20;2.95;;;3.00;99.90;;;;;;5065624;28;20086;-61
2022/12/06 05:03:48;;;;;;;3.97;2.33;;;3.00;99.90;;;;;;5067945;28;20488;-62
2022/12/06 05:06:15;;;;;;;4.72;2.58;;;2.90;99.90;;;;;;5069175;28;20063;-61
2022/12/06 05:08:42;;;;;;;5.30;2.50;;;3.00;99.90;;;;;;5068133;28;20048;-62
2022/12/06 05:11:10;;;;;;;7.63;2.40;;;3.30;99.90;;;;;;5067899;28;20064;-62
2022/12/06 05:13:37;;;;;;;4.97;2.05;;;3.60;99.90;;;;;;5066694;28;20127;-61
2022/12/06 05:16:06;;;;;;;7.22;1.88;;;3.70;99.90;;;;;;5067111;28;20465;-61
2022/12/06 05:18:34;;;;;;;5.30;2.45;;;3.90;99.90;;;;;;5068872;28;20049;-61
2022/12/06 05:21:03;;;;;;;5.80;2.83;;;3.90;99.90;;;;;;5065825;28;20048;-61
2022/12/06 05:23:30;;;;;;;8.00;4.55;;;3.80;99.90;;;;;;5066705;28;20041;-61
2022/12/06 05:26:00;;;;;;;9.15;6.13;;;3.70;99.90;;;;;;5066323;28;20044;-62
2022/12/06 05:28:29;;;;;;;14.30;6.53;;;3.70;99.90;;;;;;5063925;28;20128;-62
2022/12/06 05:30:56;;;;;;;8.05;4.78;;;3.60;99.90;;;;;;5067296;28;20052;-63
2022/12/06 05:33:23;;;;;;;8.77;4.90;;;3.60;99.90;;;;;;5068550;28;20045;-63
2022/12/06 05:35:50;;;;;;;7.65;5.05;;;3.60;99.90;;;;;;5070364;28;20448;-63
2022/12/06 05:38:17;;;;;;;8.07;3.30;;;3.70;99.90;;;;;;5066579;28;20045;-63
2022/12/06 05:40:45;;;;;;;9.27;3.58;;;3.70;99.90;;;;;;5066190;28;20407;-63
2022/12/06 05:43:12;;;;;;;6.05;3.50;;;3.60;99.90;;;;;;5068026;28;20046;-62
2022/12/06 05:45:41;;;;;;;5.57;3.42;;;3.60;99.90;;;;;;5063202;28;20052;-62
2022/12/06 05:48:08;;;;;;;8.73;4.10;;;3.50;99.90;;;;;;5066162;28;20524;-62
2022/12/06 05:50:35;;;;;;;7.30;4.50;;;3.40;99.90;;;;;;5064703;28;20074;-62
2022/12/06 05:53:02;;;;;;;8.60;4.13;;;3.40;99.90;;;;;;5062556;28;20044;-62
2022/12/06 05:55:29;;;;;;;6.20;3.42;;;3.30;99.90;;;;;;5064432;28;20051;-62
2022/12/06 05:57:56;;;;;;;6.72;3.80;;;3.20;99.90;;;;;;5065617;28;20044;-61
2022/12/06 06:00:23;;;;;;;5.25;3.10;;;3.10;99.90;;;;;;5064662;28;20058;-62
2022/12/06 06:02:52;;;;;;;4.65;2.90;;;3.10;99.90;;;;;;5067466;28;20138;-62
2022/12/06 06:05:19;;;;;;;5.18;3.22;;;3.10;99.90;;;;;;5066671;28;20058;-62
2022/12/06 06:07:46;;;;;;;6.10;2.70;;;3.10;99.90;;;;;;5071264;28;20056;-61
2022/12/06 06:10:14;;;;;;;4.60;2.55;;;3.10;99.90;;;;;;5069961;28;20049;-62
2022/12/06 06:12:41;;;;;;;5.85;2.42;;;3.10;99.90;;;;;;5070109;28;20602;-63
2022/12/06 06:15:09;;;;;;;8.23;2.72;;;3.30;99.90;;;;;;5071322;28;20049;-62
2022/12/06 06:17:36;;;;;;;6.82;3.03;;;3.20;99.90;;;;;;5070338;28;20051;-62
2022/12/06 06:20:06;;;;;;;6.22;2.97;;;3.40;99.90;;;;;;5069506;28;20044;-61
2022/12/06 06:22:33;;;;;;;5.18;2.95;;;3.40;99.90;;;;;;5068169;28;20036;-62
2022/12/06 06:25:01;;;;;;;4.85;2.70;;;3.40;99.90;;;;;;5070141;28;20500;-61
2022/12/06 06:27:27;;;;;;;8.60;2.75;;;3.40;99.90;;;;;;5070385;28;20090;-62
2022/12/06 06:29:54;;;;;;;5.95;2.88;;;3.30;99.90;;;;;;5070373;28;20044;-63
2022/12/06 06:32:21;;;;;;;7.65;2.40;;;3.30;99.90;;;;;;5068308;28;20113;-62
2022/12/06 06:34:48;;;;;;;4.60;2.70;;;3.20;99.90;;;;;;5070430;28;20090;-62
2022/12/06 06:37:16;;;;;;;8.48;4.03;;;3.10;99.90;;;;;;5068955;28;20385;-63
2022/12/06 06:39:43;;;;;;;4.45;2.88;;;3.00;99.90;;;;;;5069634;28;20435;-63
2022/12/06 06:42:10;;;;;;;6.28;3.28;;;3.00;99.90;;;;;;5068942;28;20238;-62
2022/12/06 06:44:37;;;;;;;6.82;2.97;;;2.90;99.90;;;;;;5069681;28;20056;-63
2022/12/06 06:47:04;;;;;;;6.45;3.58;;;2.80;99.90;;;;;;5068849;28;20496;-63
2022/12/06 06:49:31;;;;;;;4.82;2.67;;;2.70;99.90;;;;;;5070364;28;20045;-62
2022/12/06 06:51:58;;;;;;;6.30;2.88;;;2.60;99.90;;;;;;5069252;28;20044;-63
2022/12/06 06:54:27;;;;;;;5.00;2.72;;;2.50;99.90;;;;;;5069211;28;20048;-63
2022/12/06 06:56:55;;;;;;;5.22;2.70;;;2.40;99.90;;;;;;5073435;28;20087;-63
2022/12/06 06:59:22;;;;;;;7.10;3.03;;;2.40;99.90;;;;;;5073789;28;20126;-63
2022/12/06 07:01:49;;;;;;;6.63;3.58;;;2.30;99.90;;;;;;5074594;28;20559;-63
2022/12/06 07:04:16;;;;;;;3.80;2.95;;;2.20;99.90;;;;;;5073592;28;20055;-62
2022/12/06 07:06:43;;;;;;;8.30;3.30;;;2.20;99.90;;;;;;5074154;28;20048;-61
2022/12/06 07:09:11;;;;;;;6.78;3.40;;;2.10;99.90;;;;;;5074073;28;20044;-62
2022/12/06 07:11:39;;;;;;;6.32;3.08;;;2.00;99.90;;;;;;5073671;28;20048;-62
2022/12/06 07:14:06;;;;;;;4.90;2.97;;;1.90;99.90;;;;;;5073539;28;20106;-63
2022/12/06 07:16:33;;;;;;;10.38;3.35;;;1.90;99.90;;;;;;5073945;28;20047;-62
2022/12/06 07:19:00;;;;;;;5.95;2.95;;;1.80;99.90;;;;;;5073414;28;20403;-63
2022/12/06 07:21:27;;;;;;;6.82;3.35;;;1.80;99.90;;;;;;5071624;28;20052;-63
2022/12/06 07:23:54;;;;;;;8.02;3.58;;;1.80;99.90;;;;;;5072006;28;20044;-63
2022/12/06 07:26:22;;;;;;;5.82;3.50;;;1.80;99.90;;;;;;5073801;28;21628;-63
2022/12/06 07:28:51;;;;;;;8.90;3.58;;;1.80;99.90;;;;;;5071479;28;20040;-62
2022/12/06 07:31:20;;;;;;;7.30;3.90;;;1.70;99.90;;;;;;5073463;28;20060;-63
2022/12/06 07:33:48;;;;;;;6.88;3.95;;;1.70;99.90;;;;;;5075093;28;20116;-62
2022/12/06 07:36:16;;;;;;;6.38;3.65;;;1.70;99.90;;;;;;5073493;28;20059;-62
2022/12/06 07:38:43;;;;;;;7.40;3.72;;;1.70;99.90;;;;;;5073715;28;20067;-62
2022/12/06 07:46:47;;;;;;;15.15;5.18;;;1.60;99.90;;;;;;5071052;28;20048;-63
2022/12/06 07:49:15;;;;;;;10.82;6.43;;;1.60;99.90;;;;;;5071851;28;20064;-63
2022/12/06 07:51:42;;;;;;;11.60;6.60;;;1.90;99.90;;;;;;5072213;28;20078;-62
2022/12/06 07:54:09;;;;;;;12.18;6.38;;;1.70;99.90;;;;;;5074117;28;20056;-63
2022/12/06 07:56:36;;;;;;;13.60;6.38;;;1.70;99.90;;;;;;5073619;28;20458;-62
2022/12/06 07:59:05;;;;;;;13.13;6.50;;;1.70;99.90;;;;;;5102618;28;20118;-62
2022/12/06 08:01:31;;;;;;;11.65;7.20;;;1.80;99.90;;;;;;5073151;28;20052;-63
2022/12/06 08:03:59;;;;;;;14.30;8.73;;;1.80;99.90;;;;;;5070307;28;20488;-62
2022/12/06 08:06:26;;;;;;;16.45;8.23;;;2.10;99.90;;;;;;5073469;28;20048;-63
2022/12/06 08:08:53;;;;;;;12.27;6.40;;;2.80;99.90;;;;;;5074004;28;20495;-63
2022/12/06 08:11:21;;;;;;;10.13;4.78;;;3.70;99.90;;;;;;5073152;28;20044;-63
2022/12/06 08:13:48;;;;;;;8.05;4.75;;;4.80;99.90;;;;;;5103386;28;20052;-63
2022/12/06 08:16:17;;;;;;;7.22;3.85;;;5.40;99.90;;;;;;5071880;28;20052;-63
2022/12/06 08:18:44;;;;;;;7.35;2.90;;;6.00;99.90;;;;;;5072374;28;20048;-63
2022/12/06 08:21:12;;;;;;;6.35;2.85;;;6.30;99.90;;;;;;5072535;28;20045;-63
2022/12/06 08:23:39;;;;;;;6.50;2.90;;;6.20;99.90;;;;;;5073466;28;20395;-61
2022/12/06 08:26:08;;;;;;;6.75;3.00;;;5.80;99.90;;;;;;5073095;28;20063;-62
2022/12/06 08:28:37;;;;;;;8.35;3.35;;;5.50;99.90;;;;;;5072871;28;20455;-62
2022/12/06 08:31:07;;;;;;;5.45;2.88;;;5.10;99.90;;;;;;5072107;28;20044;-62
2022/12/06 08:33:36;;;;;;;4.20;3.10;;;4.90;99.90;;;;;;5074023;28;20083;-63
2022/12/06 08:36:07;;;;;;;5.95;3.03;;;4.80;99.90;;;;;;5074001;28;20044;-62
2022/12/06 08:38:34;;;;;;;4.80;2.63;;;4.60;99.90;;;;;;5073226;28;20079;-63
2022/12/06 08:41:01;;;;;;;4.15;2.45;;;4.50;99.90;;;;;;5070900;28;20496;-63
2022/12/06 08:43:28;;;;;;;5.45;2.63;;;4.30;99.90;;;;;;5072439;28;20493;-62
2022/12/06 08:45:55;;;;;;;5.93;3.05;;;4.30;99.90;;;;;;5071742;28;20052;-62
2022/12/06 08:48:22;;;;;;;6.03;3.20;;;4.30;99.90;;;;;;5073601;28;20048;-62
2022/12/06 08:50:51;;;;;;;5.65;3.13;;;4.40;99.90;;;;;;5072337;28;20052;-62
2022/12/06 08:53:17;;;;;;;6.03;3.40;;;4.40;99.90;;;;;;5071918;28;20053;-62
2022/12/06 08:55:54;;;;;;;9.50;3.30;;;4.50;99.90;;;;;;5072237;28;20041;-63
2022/12/06 08:58:21;;;;;;;5.40;2.67;;;4.70;99.90;;;;;;5072589;28;20492;-63
2022/12/06 09:00:48;;;;;;;7.32;2.90;;;4.70;99.90;;;;;;5072158;28;20076;-63
2022/12/06 09:03:14;;;;;;;7.85;2.63;;;4.80;99.90;;;;;;5073497;28;20044;-63
2022/12/06 09:05:41;;;;;;;5.38;2.80;;;4.80;99.90;;;;;;5071591;28;20060;-62
2022/12/06 09:08:10;;;;;;;4.80;2.38;;;4.70;99.90;;;;;;5072115;28;20408;-62
2022/12/06 09:10:37;;;;;;;4.55;2.60;;;4.60;99.90;;;;;;5072139;28;20049;-63
2022/12/06 09:13:03;;;;;;;5.97;3.15;;;4.60;99.90;;;;;;5072495;28;20488;-62
2022/12/06 09:15:30;;;;;;;5.70;2.50;;;4.60;99.90;;;;;;5070015;28;20044;-62
2022/12/06 09:17:57;;;;;;;4.63;2.88;;;4.70;99.90;;;;;;5072271;28;20086;-63
2022/12/06 09:20:24;;;;;;;4.57;2.40;;;4.80;99.90;;;;;;5072151;28;20041;-63
2022/12/06 09:22:51;;;;;;;6.55;2.67;;;5.90;99.90;;;;;;5073382;28;20555;-63
2022/12/06 09:25:19;;;;;;;7.50;2.50;;;7.40;99.90;;;;;;5072064;28;20484;-63
2022/12/06 09:27:47;;;;;;;8.30;2.72;;;8.90;99.90;;;;;;5069208;28;20499;-62
2022/12/06 09:30:15;;;;;;;5.30;3.30;;;9.90;99.90;;;;;;5071997;28;20551;-63
2022/12/06 09:32:42;;;;;;;7.05;3.10;;;10.90;99.90;;;;;;5072926;28;20048;-62
2022/12/06 09:35:09;;;;;;;5.40;2.70;;;11.90;99.90;;;;;;5072457;28;20044;-63
2022/12/06 09:37:36;;;;;;;4.07;2.63;;;12.40;99.90;;;;;;5071622;28;20067;-63
2022/12/06 09:40:11;;;;;;;8.20;2.80;;;13.10;99.90;;;;;;5071444;28;20529;-63
2022/12/06 09:42:53;;;;;;;4.80;2.90;;;13.30;99.90;;;;;;5072294;28;20052;-63
2022/12/06 09:45:52;;;;;;;5.28;2.80;;;13.70;99.90;;;;;;5072468;28;20063;-63
2022/12/06 09:48:57;;;;;;;4.47;2.70;;;14.10;99.90;;;;;;5070830;28;20059;-62
2022/12/06 09:51:40;;;;;;;6.05;2.40;;;14.70;99.90;;;;;;5072630;28;20412;-62
2022/12/06 09:54:21;;;;;;;4.05;2.03;;;14.70;99.90;;;;;;5071073;28;20041;-63
2022/12/06 09:56:51;;;;;;;6.38;2.40;;;13.80;99.90;;;;;;5069550;28;20048;-63
2022/12/06 09:59:23;;;;;;;;;;;13.20;99.90;;;;;;5071343;28;20050;-63
2022/12/06 10:02:07;;;;;;;6.82;2.35;;;13.20;99.90;;;;;;5071721;28;19947;-63
2022/12/06 10:04:54;;;;;;;4.40;2.20;;;14.30;99.90;;;;;;5072284;28;20064;-63
2022/12/06 10:07:29;;;;;;;4.80;2.33;;;15.20;99.90;;;;;;5069313;28;20051;-62
2022/12/06 10:10:04;;;;;;;6.53;2.33;;;15.50;99.90;;;;;;5070380;28;20114;-63
2022/12/06 10:12:45;;;;;;;5.88;2.53;;;15.40;99.90;;;;;;5072447;28;20114;-63
2022/12/06 10:15:19;;;;;;;;;;;13.90;99.90;;;;;;5072647;28;20510;-63
2022/12/06 10:18:02;;;;;;;4.65;1.80;;;12.60;99.90;;;;;;5070492;28;20280;-63
2022/12/06 10:20:37;;;;;;;4.38;2.20;;;12.60;99.90;;;;;;5070688;28;20044;-63
2022/12/06 10:23:17;;;;;;;3.38;1.67;;;12.50;99.90;;;;;;5071486;28;20040;-62
2022/12/06 10:25:51;;;;;;;5.32;1.85;;;13.00;99.90;;;;;;5070968;28;20048;-64
2022/12/06 10:28:24;;;;;;;4.72;1.80;;;13.70;99.90;;;;;;5071063;28;20049;-63
2022/12/06 10:30:56;;;;;;;5.35;1.75;;;13.30;99.90;;;;;;5071305;28;20098;-62
2022/12/06 10:33:34;;;;;;;5.85;1.55;;;12.60;99.90;;;;;;5070863;28;20106;-62
2022/12/06 10:36:04;;;;;;;7.57;2.20;;;11.80;99.90;;;;;;5071642;28;20064;-62
2022/12/06 10:38:39;;;;;;;3.42;1.60;;;11.20;99.90;;;;;;5071089;28;20439;-62
2022/12/06 10:41:13;;;;;;;4.75;1.63;;;10.80;99.90;;;;;;5071991;28;20049;-62
2022/12/06 10:43:49;;;;;;;4.63;1.77;;;10.50;99.90;;;;;;5070372;28;20450;-63
2022/12/06 10:49:16;;;;;;;3.85;1.70;;;10.10;99.90;;;;;;5070331;28;20056;-63
2022/12/06 10:51:49;;;;;;;3.85;1.83;;;10.50;99.90;;;;;;5069697;28;20484;-63
2022/12/06 10:54:23;;;;;;;4.00;2.00;;;10.50;99.90;;;;;;5070698;28;20057;-63
2022/12/06 10:56:53;;;;;;;3.92;1.70;;;10.40;99.90;;;;;;5070723;28;20101;-63
2022/12/06 10:59:28;;;;;;;6.10;1.92;;;10.10;99.90;;;;;;5069945;28;20060;-62
2022/12/06 11:01:59;;;;;;;3.83;1.73;;;9.90;99.90;;;;;;5071655;28;20052;-63
2022/12/06 11:04:32;;;;;;;3.60;2.25;;;9.40;99.90;;;;;;5070298;28;20400;-62
2022/12/06 11:07:02;;;;;;;2.97;1.73;;;9.10;99.90;;;;;;5068177;28;20052;-63
2022/12/06 11:09:36;;;;;;;4.35;1.70;;;8.80;99.90;;;;;;5071519;28;20048;-64
2022/12/06 11:12:20;;;;;;;2.20;1.60;;;9.00;99.90;;;;;;5069908;28;20119;-63
2022/12/06 11:14:51;;;;;;;2.75;1.70;;;10.00;99.90;;;;;;5071416;28;20049;-62
2022/12/06 11:17:24;;;;;;;2.78;1.60;;;10.50;99.90;;;;;;5071702;28;20051;-62
2022/12/06 11:19:55;;;;;;;3.17;1.52;;;11.60;99.90;;;;;;5069545;28;20492;-62
2022/12/06 11:22:24;;;;;;;;;;;11.70;99.90;;;;;;5072225;28;20118;-62
2022/12/06 11:24:57;;;;;;;2.90;1.58;;;11.30;99.90;;;;;;5069966;28;19931;-62
2022/12/06 11:27:30;;;;;;;2.67;1.50;;;11.10;99.90;;;;;;5069938;28;20484;-62
2022/12/06 11:29:58;;;;;;;9.95;2.10;;;10.80;99.90;;;;;;5069707;28;20126;-62
2022/12/06 11:32:26;;;;;;;3.97;1.85;;;10.50;99.90;;;;;;5071516;28;20119;-63
2022/12/06 11:34:56;;;;;;;3.00;1.80;;;10.30;99.90;;;;;;5068774;28;20067;-63
2022/12/06 11:37:26;;;;;;;2.88;1.70;;;10.30;99.90;;;;;;5070058;28;20052;-63
2022/12/06 11:39:56;;;;;;;3.77;1.60;;;10.30;99.90;;;;;;5069657;28;20118;-62
2022/12/06 11:42:26;;;;;;;3.13;1.80;;;10.20;99.90;;;;;;5072654;28;20534;-62
2022/12/06 11:44:56;;;;;;;2.90;1.58;;;9.70;99.90;;;;;;5073174;28;20060;-63
2022/12/06 11:47:24;;;;;;;4.93;2.00;;;9.50;99.90;;;;;;5074645;28;20048;-63
2022/12/06 11:49:54;;;;;;;2.97;1.88;;;9.30;99.90;;;;;;5074482;28;20052;-63
2022/12/06 11:52:27;;;;;;;5.57;1.88;;;9.20;99.90;;;;;;5075122;28;20044;-63
2022/12/06 11:54:58;;;;;;;2.85;1.80;;;9.60;99.90;;;;;;5071689;28;20051;-63
2022/12/06 11:57:28;;;;;;;;;;;10.90;99.90;;;;;;5075368;28;20051;-63
2022/12/06 12:00:11;;;;;;;3.55;2.25;;;12.40;99.90;;;;;;5073183;28;19924;-63
2022/12/06 12:02:39;;;;;;;2.97;1.75;;;13.50;99.90;;;;;;5074308;28;20114;-62
2022/12/06 12:05:11;;;;;;;3.78;1.45;;;14.80;99.90;;;;;;5074559;28;20067;-62
2022/12/06 12:07:40;;;;;;;5.47;1.40;;;15.10;99.90;;;;;;5071265;28;20052;-63
2022/12/06 12:10:24;;;;;;;3.35;1.77;;;15.40;99.90;;;;;;5073465;28;20447;-63
2022/12/06 12:15:40;;;;;;;4.80;1.65;;;15.80;99.90;;;;;;5056276;28;20060;-63
2022/12/06 12:18:23;;;;;;;3.33;1.35;;;14.40;99.90;;;;;;5073285;28;20454;-64
2022/12/06 12:20:53;;;;;;;3.58;1.48;;;13.40;99.90;;;;;;5073390;28;20059;-63
2022/12/06 12:23:25;;;;;;;2.15;1.25;;;12.50;99.90;;;;;;5073991;28;20056;-62
2022/12/06 12:26:03;;;;;;;2.95;1.60;;;12.10;99.90;;;;;;5072051;28;20048;-64
2022/12/06 12:28:32;;;;;;;2.67;1.40;;;11.40;99.90;;;;;;5072513;28;20529;-64
2022/12/06 12:31:00;;;;;;;3.17;1.80;;;10.90;99.90;;;;;;5072436;28;20064;-63
2022/12/06 12:33:27;;;;;;;2.85;1.40;;;10.70;99.90;;;;;;5074231;28;20072;-63
2022/12/06 12:36:10;;;;;;;4.53;1.75;;;10.00;99.90;;;;;;5072926;28;20095;-62
2022/12/06 12:38:41;;;;;;;3.65;1.80;;;9.80;99.90;;;;;;5073395;28;20055;-62
2022/12/06 12:41:22;;;;;;;;;;;9.60;99.90;;;;;;5074145;28;20048;-63
2022/12/06 12:43:57;;;;;;;2.63;1.60;;;9.30;99.90;;;;;;5073013;28;19973;-63
2022/12/06 12:46:24;;;;;;;4.18;1.80;;;9.20;99.90;;;;;;5071826;28;20048;-62
2022/12/06 12:48:52;;;;;;;4.35;2.00;;;9.30;99.90;;;;;;5072273;28;20059;-62
2022/12/06 12:51:32;;;;;;;4.35;1.58;;;9.10;99.90;;;;;;5071859;28;20080;-62
2022/12/06 12:54:02;;;;;;;4.78;2.08;;;9.20;99.90;;;;;;5105226;28;20123;-62
2022/12/06 12:56:32;;;;;;;4.05;2.15;;;9.20;99.90;;;;;;5073792;28;20045;-62
2022/12/06 12:59:02;;;;;;;2.85;1.80;;;9.10;99.90;;;;;;5069925;28;20404;-62
2022/12/06 13:01:37;;;;;;;3.00;1.95;;;9.30;99.90;;;;;;5072439;28;20064;-62
2022/12/06 13:04:13;;;;;;;4.40;2.10;;;9.30;99.90;;;;;;5073172;28;20045;-62
2022/12/06 13:06:47;;;;;;;4.72;1.80;;;9.10;99.90;;;;;;5072760;28;20113;-62
2022/12/06 13:09:20;;;;;;;3.85;1.40;;;9.10;99.90;;;;;;5072438;28;20048;-62
2022/12/06 13:11:52;;;;;;;5.97;1.85;;;9.10;99.90;;;;;;5072787;28;20045;-62
2022/12/06 13:14:22;;;;;;;3.72;1.92;;;9.00;99.90;;;;;;5072191;28;20090;-62
2022/12/06 13:16:52;;;;;;;3.58;1.55;;;9.00;99.90;;;;;;5072063;28;20059;-62
2022/12/06 13:19:24;;;;;;;6.47;2.53;;;8.80;99.90;;;;;;5071668;28;20083;-62
2022/12/06 13:21:52;;;;;;;4.22;1.90;;;8.80;99.90;;;;;;5071669;28;20055;-62
2022/12/06 13:24:25;;;;;;;3.22;1.75;;;8.90;99.90;;;;;;5071864;28;20558;-63
2022/12/06 13:26:56;;;;;;;3.70;1.90;;;9.10;99.90;;;;;;5071348;28;20086;-63
2022/12/06 13:29:29;;;;;;;3.22;1.67;;;9.30;99.90;;;;;;5071683;28;20059;-64
2022/12/06 13:31:59;;;;;;;5.25;1.60;;;9.60;99.90;;;;;;5071697;28;20485;-63
2022/12/06 13:34:33;;;;;;;4.55;2.05;;;10.10;99.90;;;;;;5070859;28;20055;-63
2022/12/06 13:37:01;;;;;;;4.40;1.77;;;11.40;99.90;;;;;;5070603;28;20098;-61
2022/12/06 13:39:40;;;;;;;4.13;1.80;;;12.50;99.90;;;;;;5069377;28;20045;-62
2022/12/06 13:42:22;;;;;;;6.32;2.17;;;13.50;99.90;;;;;;5071586;28;20055;-62